sensor_id;sensor_type;location;lat;lon;timestamp;P1;durP1;ratioP1;P2;durP2;ratioP2
15482;SDS011;7843;50.330;7.312;2023-04-07T00:02:05;6.47;;;4.55;;
15482;SDS011;7843;50.330;7.312;2023-04-07T00:04:32;6.03;;;4.18;;
15482;SDS011;7843;50.330;7.312;2023-04-07T00:06:58;8.90;;;4.97;;
15482;SDS011;7843;50.330;7.312;2023-04-07T00:09:25;9.23;;;4.63;;
15482;SDS011;7843;50.330;7.312;2023-04-07T00:11:52;7.80;;;4.00;;
15482;SDS011;7843;50.330;7.312;2023-04-07T00:14:18;6.78;;;4.50;;
15482;SDS011;7843;50.330;7.312;2023-04-07T00:16:45;7.90;;;4.68;;
15482;SDS011;7843;50.330;7.312;2023-04-07T00:19:12;7.85;;;4.85;;
15482;SDS011;7843;50.330;7.312;2023-04-07T00:21:39;7.03;;;4.47;;
15482;SDS011;7843;50.330;7.312;2023-04-07T00:24:06;7.20;;;4.35;;
15482;SDS011;7843;50.330;7.312;2023-04-07T00:26:33;10.80;;;5.05;;
15482;SDS011;7843;50.330;7.312;2023-04-07T00:29:00;7.75;;;4.53;;
15482;SDS011;7843;50.330;7.312;2023-04-07T00:31:26;7.90;;;4.97;;
15482;SDS011;7843;50.330;7.312;2023-04-07T00:33:53;7.43;;;4.75;;
15482;SDS011;7843;50.330;7.312;2023-04-07T00:36:20;9.65;;;5.57;;
15482;SDS011;7843;50.330;7.312;2023-04-07T00:38:47;8.65;;;4.55;;
15482;SDS011;7843;50.330;7.312;2023-04-07T00:41:14;7.45;;;4.93;;
15482;SDS011;7843;50.330;7.312;2023-04-07T00:43:41;8.65;;;5.43;;
15482;SDS011;7843;50.330;7.312;2023-04-07T00:46:07;7.53;;;4.72;;
15482;SDS011;7843;50.330;7.312;2023-04-07T00:48:35;10.98;;;5.82;;
15482;SDS011;7843;50.330;7.312;2023-04-07T00:51:02;7.47;;;4.63;;
15482;SDS011;7843;50.330;7.312;2023-04-07T00:53:29;8.52;;;5.60;;
15482;SDS011;7843;50.330;7.312;2023-04-07T00:55:56;7.80;;;4.65;;
15482;SDS011;7843;50.330;7.312;2023-04-07T00:58:23;8.77;;;5.53;;
15482;SDS011;7843;50.330;7.312;2023-04-07T01:01:34;8.55;;;4.88;;
15482;SDS011;7843;50.330;7.312;2023-04-07T01:03:49;7.85;;;4.85;;
15482;SDS011;7843;50.330;7.312;2023-04-07T01:06:20;8.02;;;4.78;;
15482;SDS011;7843;50.330;7.312;2023-04-07T01:09:09;8.05;;;5.00;;
15482;SDS011;7843;50.330;7.312;2023-04-07T01:11:42;9.43;;;5.37;;
15482;SDS011;7843;50.330;7.312;2023-04-07T01:14:14;9.48;;;5.15;;
15482;SDS011;7843;50.330;7.312;2023-04-07T01:22:06;7.65;;;4.38;;
15482;SDS011;7843;50.330;7.312;2023-04-07T01:24:57;7.10;;;4.50;;
15482;SDS011;7843;50.330;7.312;2023-04-07T01:30:28;6.90;;;5.05;;
15482;SDS011;7843;50.330;7.312;2023-04-07T01:32:57;6.95;;;4.68;;
15482;SDS011;7843;50.330;7.312;2023-04-07T01:35:25;9.15;;;5.15;;
15482;SDS011;7843;50.330;7.312;2023-04-07T01:37:55;7.63;;;4.80;;
15482;SDS011;7843;50.330;7.312;2023-04-07T01:40:25;8.10;;;4.70;;
15482;SDS011;7843;50.330;7.312;2023-04-07T01:42:53;7.93;;;4.72;;
15482;SDS011;7843;50.330;7.312;2023-04-07T01:45:22;8.27;;;5.13;;
15482;SDS011;7843;50.330;7.312;2023-04-07T01:47:51;7.20;;;4.88;;
15482;SDS011;7843;50.330;7.312;2023-04-07T01:50:20;8.55;;;5.07;;
15482;SDS011;7843;50.330;7.312;2023-04-07T01:52:47;8.27;;;4.68;;
15482;SDS011;7843;50.330;7.312;2023-04-07T01:55:14;8.38;;;5.47;;
15482;SDS011;7843;50.330;7.312;2023-04-07T01:57:41;10.45;;;5.00;;
15482;SDS011;7843;50.330;7.312;2023-04-07T02:00:07;8.48;;;5.10;;
15482;SDS011;7843;50.330;7.312;2023-04-07T02:02:35;7.10;;;4.65;;
15482;SDS011;7843;50.330;7.312;2023-04-07T02:05:07;11.15;;;5.70;;
15482;SDS011;7843;50.330;7.312;2023-04-07T02:10:14;8.00;;;5.07;;
15482;SDS011;7843;50.330;7.312;2023-04-07T02:12:42;8.77;;;4.07;;
15482;SDS011;7843;50.330;7.312;2023-04-07T02:15:11;7.70;;;5.13;;
15482;SDS011;7843;50.330;7.312;2023-04-07T02:17:39;8.73;;;4.50;;
15482;SDS011;7843;50.330;7.312;2023-04-07T02:20:08;7.03;;;4.20;;
15482;SDS011;7843;50.330;7.312;2023-04-07T02:22:37;6.47;;;3.80;;
15482;SDS011;7843;50.330;7.312;2023-04-07T02:25:23;7.40;;;4.53;;
15482;SDS011;7843;50.330;7.312;2023-04-07T02:27:52;7.93;;;4.80;;
15482;SDS011;7843;50.330;7.312;2023-04-07T02:30:19;7.18;;;4.30;;
15482;SDS011;7843;50.330;7.312;2023-04-07T02:32:46;7.05;;;4.18;;
15482;SDS011;7843;50.330;7.312;2023-04-07T02:35:13;5.85;;;3.78;;
15482;SDS011;7843;50.330;7.312;2023-04-07T02:37:42;6.00;;;4.35;;
15482;SDS011;7843;50.330;7.312;2023-04-07T02:40:09;5.93;;;4.38;;
15482;SDS011;7843;50.330;7.312;2023-04-07T02:42:36;7.10;;;4.93;;
15482;SDS011;7843;50.330;7.312;2023-04-07T02:45:03;6.07;;;4.05;;
15482;SDS011;7843;50.330;7.312;2023-04-07T02:47:32;6.95;;;4.40;;
15482;SDS011;7843;50.330;7.312;2023-04-07T02:49:59;7.47;;;4.53;;
15482;SDS011;7843;50.330;7.312;2023-04-07T02:52:26;7.43;;;4.47;;
15482;SDS011;7843;50.330;7.312;2023-04-07T02:54:53;7.55;;;4.75;;
15482;SDS011;7843;50.330;7.312;2023-04-07T02:57:19;7.60;;;4.67;;
15482;SDS011;7843;50.330;7.312;2023-04-07T02:59:46;5.50;;;3.78;;
15482;SDS011;7843;50.330;7.312;2023-04-07T03:02:13;6.80;;;4.45;;
15482;SDS011;7843;50.330;7.312;2023-04-07T03:04:40;6.22;;;4.18;;
15482;SDS011;7843;50.330;7.312;2023-04-07T03:07:08;7.88;;;4.53;;
15482;SDS011;7843;50.330;7.312;2023-04-07T03:09:35;6.10;;;3.88;;
15482;SDS011;7843;50.330;7.312;2023-04-07T03:12:05;9.95;;;4.38;;
15482;SDS011;7843;50.330;7.312;2023-04-07T03:14:32;6.60;;;4.35;;
15482;SDS011;7843;50.330;7.312;2023-04-07T03:16:58;9.25;;;5.10;;
15482;SDS011;7843;50.330;7.312;2023-04-07T03:19:25;6.90;;;4.38;;
15482;SDS011;7843;50.330;7.312;2023-04-07T03:21:52;6.60;;;4.30;;
15482;SDS011;7843;50.330;7.312;2023-04-07T03:24:19;7.30;;;4.28;;
15482;SDS011;7843;50.330;7.312;2023-04-07T03:26:45;8.10;;;4.90;;
15482;SDS011;7843;50.330;7.312;2023-04-07T03:29:12;6.07;;;4.22;;
15482;SDS011;7843;50.330;7.312;2023-04-07T03:31:39;5.75;;;3.88;;
15482;SDS011;7843;50.330;7.312;2023-04-07T03:34:06;5.97;;;3.78;;
15482;SDS011;7843;50.330;7.312;2023-04-07T03:36:33;6.32;;;4.38;;
15482;SDS011;7843;50.330;7.312;2023-04-07T03:39:00;7.13;;;4.80;;
15482;SDS011;7843;50.330;7.312;2023-04-07T03:41:26;4.35;;;3.08;;
15482;SDS011;7843;50.330;7.312;2023-04-07T03:43:53;5.87;;;3.77;;
15482;SDS011;7843;50.330;7.312;2023-04-07T03:46:20;7.65;;;3.70;;
15482;SDS011;7843;50.330;7.312;2023-04-07T03:48:47;4.10;;;2.92;;
15482;SDS011;7843;50.330;7.312;2023-04-07T03:51:14;4.83;;;3.40;;
15482;SDS011;7843;50.330;7.312;2023-04-07T03:53:41;4.95;;;3.45;;
15482;SDS011;7843;50.330;7.312;2023-04-07T03:56:07;7.03;;;3.05;;
15482;SDS011;7843;50.330;7.312;2023-04-07T03:58:34;5.82;;;3.38;;
15482;SDS011;7843;50.330;7.312;2023-04-07T04:01:01;5.03;;;3.92;;
15482;SDS011;7843;50.330;7.312;2023-04-07T04:03:28;5.57;;;2.88;;
15482;SDS011;7843;50.330;7.312;2023-04-07T04:05:55;7.60;;;2.85;;
15482;SDS011;7843;50.330;7.312;2023-04-07T04:08:21;4.60;;;3.33;;
15482;SDS011;7843;50.330;7.312;2023-04-07T04:10:48;7.43;;;2.88;;
15482;SDS011;7843;50.330;7.312;2023-04-07T04:13:15;5.78;;;2.85;;
15482;SDS011;7843;50.330;7.312;2023-04-07T04:15:42;4.20;;;2.83;;
15482;SDS011;7843;50.330;7.312;2023-04-07T04:18:08;5.57;;;3.07;;
15482;SDS011;7843;50.330;7.312;2023-04-07T04:20:35;4.95;;;2.85;;
15482;SDS011;7843;50.330;7.312;2023-04-07T04:23:02;5.45;;;3.55;;
15482;SDS011;7843;50.330;7.312;2023-04-07T04:25:29;7.50;;;3.90;;
15482;SDS011;7843;50.330;7.312;2023-04-07T04:27:56;6.85;;;4.20;;
15482;SDS011;7843;50.330;7.312;2023-04-07T04:30:23;7.77;;;3.87;;
15482;SDS011;7843;50.330;7.312;2023-04-07T04:32:49;7.60;;;4.20;;
15482;SDS011;7843;50.330;7.312;2023-04-07T04:35:16;6.75;;;4.03;;
15482;SDS011;7843;50.330;7.312;2023-04-07T04:37:43;6.95;;;4.47;;
15482;SDS011;7843;50.330;7.312;2023-04-07T04:40:10;9.18;;;4.72;;
15482;SDS011;7843;50.330;7.312;2023-04-07T04:42:37;6.77;;;4.47;;
15482;SDS011;7843;50.330;7.312;2023-04-07T04:45:03;7.97;;;4.78;;
15482;SDS011;7843;50.330;7.312;2023-04-07T04:47:31;5.88;;;4.13;;
15482;SDS011;7843;50.330;7.312;2023-04-07T04:49:57;8.55;;;5.05;;
15482;SDS011;7843;50.330;7.312;2023-04-07T04:52:24;7.25;;;4.65;;
15482;SDS011;7843;50.330;7.312;2023-04-07T04:54:52;7.83;;;4.80;;
15482;SDS011;7843;50.330;7.312;2023-04-07T04:57:19;9.10;;;4.70;;
15482;SDS011;7843;50.330;7.312;2023-04-07T04:59:46;6.47;;;4.70;;
15482;SDS011;7843;50.330;7.312;2023-04-07T05:02:13;7.35;;;4.28;;
15482;SDS011;7843;50.330;7.312;2023-04-07T05:04:39;5.93;;;3.80;;
15482;SDS011;7843;50.330;7.312;2023-04-07T05:07:06;6.72;;;4.60;;
15482;SDS011;7843;50.330;7.312;2023-04-07T05:09:33;5.93;;;3.92;;
15482;SDS011;7843;50.330;7.312;2023-04-07T05:11:59;7.97;;;4.27;;
15482;SDS011;7843;50.330;7.312;2023-04-07T05:14:27;7.75;;;4.68;;
15482;SDS011;7843;50.330;7.312;2023-04-07T05:16:54;5.97;;;3.90;;
15482;SDS011;7843;50.330;7.312;2023-04-07T05:19:20;7.82;;;4.25;;
15482;SDS011;7843;50.330;7.312;2023-04-07T05:21:47;5.47;;;4.13;;
15482;SDS011;7843;50.330;7.312;2023-04-07T05:24:14;7.45;;;4.35;;
15482;SDS011;7843;50.330;7.312;2023-04-07T05:26:41;8.52;;;4.50;;
15482;SDS011;7843;50.330;7.312;2023-04-07T05:29:07;11.60;;;5.10;;
15482;SDS011;7843;50.330;7.312;2023-04-07T05:31:34;7.70;;;4.15;;
15482;SDS011;7843;50.330;7.312;2023-04-07T05:34:02;5.97;;;3.75;;
15482;SDS011;7843;50.330;7.312;2023-04-07T05:36:29;7.03;;;3.80;;
15482;SDS011;7843;50.330;7.312;2023-04-07T05:38:56;6.63;;;4.33;;
15482;SDS011;7843;50.330;7.312;2023-04-07T05:41:23;7.07;;;4.60;;
15482;SDS011;7843;50.330;7.312;2023-04-07T05:43:50;8.15;;;4.65;;
15482;SDS011;7843;50.330;7.312;2023-04-07T05:46:16;5.68;;;4.05;;
15482;SDS011;7843;50.330;7.312;2023-04-07T05:48:43;7.55;;;4.60;;
15482;SDS011;7843;50.330;7.312;2023-04-07T05:51:10;6.07;;;3.83;;
15482;SDS011;7843;50.330;7.312;2023-04-07T05:53:37;5.28;;;3.72;;
15482;SDS011;7843;50.330;7.312;2023-04-07T05:56:04;6.68;;;4.55;;
15482;SDS011;7843;50.330;7.312;2023-04-07T05:58:31;5.88;;;4.00;;
15482;SDS011;7843;50.330;7.312;2023-04-07T06:00:58;6.63;;;4.00;;
15482;SDS011;7843;50.330;7.312;2023-04-07T06:03:24;4.97;;;3.58;;
15482;SDS011;7843;50.330;7.312;2023-04-07T06:05:51;5.93;;;4.15;;
15482;SDS011;7843;50.330;7.312;2023-04-07T06:08:18;7.18;;;3.40;;
15482;SDS011;7843;50.330;7.312;2023-04-07T06:10:45;5.90;;;3.70;;
15482;SDS011;7843;50.330;7.312;2023-04-07T06:13:11;7.95;;;4.70;;
15482;SDS011;7843;50.330;7.312;2023-04-07T06:15:38;5.35;;;3.90;;
15482;SDS011;7843;50.330;7.312;2023-04-07T06:18:05;8.90;;;4.60;;
15482;SDS011;7843;50.330;7.312;2023-04-07T06:20:32;6.63;;;4.18;;
15482;SDS011;7843;50.330;7.312;2023-04-07T06:22:58;6.38;;;4.00;;
15482;SDS011;7843;50.330;7.312;2023-04-07T06:25:25;10.88;;;5.55;;
15482;SDS011;7843;50.330;7.312;2023-04-07T06:27:52;8.55;;;5.30;;
15482;SDS011;7843;50.330;7.312;2023-04-07T06:30:20;10.07;;;5.10;;
15482;SDS011;7843;50.330;7.312;2023-04-07T06:32:46;8.82;;;5.35;;
15482;SDS011;7843;50.330;7.312;2023-04-07T06:35:13;8.13;;;5.50;;
15482;SDS011;7843;50.330;7.312;2023-04-07T06:37:40;9.65;;;5.60;;
15482;SDS011;7843;50.330;7.312;2023-04-07T06:40:07;9.40;;;5.90;;
15482;SDS011;7843;50.330;7.312;2023-04-07T06:42:34;10.73;;;5.20;;
15482;SDS011;7843;50.330;7.312;2023-04-07T06:45:01;7.00;;;4.63;;
15482;SDS011;7843;50.330;7.312;2023-04-07T06:47:28;8.75;;;5.30;;
15482;SDS011;7843;50.330;7.312;2023-04-07T06:49:54;9.00;;;4.38;;
15482;SDS011;7843;50.330;7.312;2023-04-07T06:52:21;7.88;;;4.75;;
15482;SDS011;7843;50.330;7.312;2023-04-07T06:54:48;6.37;;;4.10;;
15482;SDS011;7843;50.330;7.312;2023-04-07T06:57:15;7.70;;;4.50;;
15482;SDS011;7843;50.330;7.312;2023-04-07T06:59:42;6.55;;;4.50;;
15482;SDS011;7843;50.330;7.312;2023-04-07T07:02:09;5.88;;;3.95;;
15482;SDS011;7843;50.330;7.312;2023-04-07T07:04:35;6.72;;;4.15;;
15482;SDS011;7843;50.330;7.312;2023-04-07T07:07:02;7.60;;;4.20;;
15482;SDS011;7843;50.330;7.312;2023-04-07T07:09:29;6.20;;;4.13;;
15482;SDS011;7843;50.330;7.312;2023-04-07T07:11:56;9.50;;;4.90;;
15482;SDS011;7843;50.330;7.312;2023-04-07T07:14:22;6.65;;;4.13;;
15482;SDS011;7843;50.330;7.312;2023-04-07T07:16:49;5.95;;;3.95;;
15482;SDS011;7843;50.330;7.312;2023-04-07T07:19:16;6.38;;;3.65;;
15482;SDS011;7843;50.330;7.312;2023-04-07T07:21:42;6.07;;;4.15;;
15482;SDS011;7843;50.330;7.312;2023-04-07T07:24:09;7.13;;;4.60;;
15482;SDS011;7843;50.330;7.312;2023-04-07T07:26:36;10.68;;;5.47;;
15482;SDS011;7843;50.330;7.312;2023-04-07T07:29:02;7.63;;;4.90;;
15482;SDS011;7843;50.330;7.312;2023-04-07T07:31:29;7.65;;;4.15;;
15482;SDS011;7843;50.330;7.312;2023-04-07T07:33:56;7.93;;;4.27;;
15482;SDS011;7843;50.330;7.312;2023-04-07T07:36:23;6.72;;;3.83;;
15482;SDS011;7843;50.330;7.312;2023-04-07T07:38:49;6.43;;;4.07;;
15482;SDS011;7843;50.330;7.312;2023-04-07T07:41:16;7.93;;;3.90;;
15482;SDS011;7843;50.330;7.312;2023-04-07T07:43:43;6.82;;;4.18;;
15482;SDS011;7843;50.330;7.312;2023-04-07T07:46:10;7.03;;;4.28;;
15482;SDS011;7843;50.330;7.312;2023-04-07T07:48:37;7.32;;;4.43;;
15482;SDS011;7843;50.330;7.312;2023-04-07T07:51:03;7.90;;;4.50;;
15482;SDS011;7843;50.330;7.312;2023-04-07T07:53:30;7.30;;;4.75;;
15482;SDS011;7843;50.330;7.312;2023-04-07T07:55:57;7.88;;;4.93;;
15482;SDS011;7843;50.330;7.312;2023-04-07T07:58:23;7.63;;;4.63;;
15482;SDS011;7843;50.330;7.312;2023-04-07T08:00:50;8.57;;;4.97;;
15482;SDS011;7843;50.330;7.312;2023-04-07T08:03:17;8.25;;;5.30;;
15482;SDS011;7843;50.330;7.312;2023-04-07T08:05:44;6.68;;;4.30;;
15482;SDS011;7843;50.330;7.312;2023-04-07T08:08:12;7.05;;;4.45;;
15482;SDS011;7843;50.330;7.312;2023-04-07T08:10:39;8.40;;;4.97;;
15482;SDS011;7843;50.330;7.312;2023-04-07T08:13:05;8.40;;;4.55;;
15482;SDS011;7843;50.330;7.312;2023-04-07T08:15:32;10.88;;;5.70;;
15482;SDS011;7843;50.330;7.312;2023-04-07T08:17:59;8.88;;;4.93;;
15482;SDS011;7843;50.330;7.312;2023-04-07T08:20:28;7.30;;;4.63;;
15482;SDS011;7843;50.330;7.312;2023-04-07T08:22:55;9.40;;;5.77;;
15482;SDS011;7843;50.330;7.312;2023-04-07T08:25:21;10.80;;;5.53;;
15482;SDS011;7843;50.330;7.312;2023-04-07T08:27:48;12.73;;;6.75;;
15482;SDS011;7843;50.330;7.312;2023-04-07T08:30:15;13.80;;;7.40;;
15482;SDS011;7843;50.330;7.312;2023-04-07T08:32:43;15.77;;;7.18;;
15482;SDS011;7843;50.330;7.312;2023-04-07T08:35:10;11.20;;;7.05;;
15482;SDS011;7843;50.330;7.312;2023-04-07T08:37:37;13.57;;;7.20;;
15482;SDS011;7843;50.330;7.312;2023-04-07T08:40:05;14.45;;;7.78;;
15482;SDS011;7843;50.330;7.312;2023-04-07T08:42:32;15.38;;;8.20;;
15482;SDS011;7843;50.330;7.312;2023-04-07T08:45:03;14.02;;;7.60;;
15482;SDS011;7843;50.330;7.312;2023-04-07T08:47:32;15.40;;;7.18;;
15482;SDS011;7843;50.330;7.312;2023-04-07T08:50:01;15.68;;;6.78;;
15482;SDS011;7843;50.330;7.312;2023-04-07T08:52:45;13.43;;;7.38;;
15482;SDS011;7843;50.330;7.312;2023-04-07T08:55:13;12.82;;;7.20;;
15482;SDS011;7843;50.330;7.312;2023-04-07T08:57:41;13.30;;;7.53;;
15482;SDS011;7843;50.330;7.312;2023-04-07T09:00:08;16.05;;;6.55;;
15482;SDS011;7843;50.330;7.312;2023-04-07T09:02:36;16.50;;;7.50;;
15482;SDS011;7843;50.330;7.312;2023-04-07T09:05:10;12.95;;;6.88;;
15482;SDS011;7843;50.330;7.312;2023-04-07T09:07:39;18.98;;;7.70;;
15482;SDS011;7843;50.330;7.312;2023-04-07T09:10:08;12.95;;;6.32;;
15482;SDS011;7843;50.330;7.312;2023-04-07T09:12:35;11.88;;;6.32;;
15482;SDS011;7843;50.330;7.312;2023-04-07T09:15:04;12.63;;;6.45;;
15482;SDS011;7843;50.330;7.312;2023-04-07T09:17:32;12.50;;;6.72;;
15482;SDS011;7843;50.330;7.312;2023-04-07T09:19:59;13.93;;;6.75;;
15482;SDS011;7843;50.330;7.312;2023-04-07T09:22:36;14.00;;;6.20;;
15482;SDS011;7843;50.330;7.312;2023-04-07T09:28:00;10.15;;;5.45;;
15482;SDS011;7843;50.330;7.312;2023-04-07T09:30:30;10.60;;;5.10;;
15482;SDS011;7843;50.330;7.312;2023-04-07T09:32:58;8.98;;;5.32;;
15482;SDS011;7843;50.330;7.312;2023-04-07T09:35:26;10.52;;;5.07;;
15482;SDS011;7843;50.330;7.312;2023-04-07T09:38:27;9.73;;;5.25;;
15482;SDS011;7843;50.330;7.312;2023-04-07T09:40:46;10.87;;;5.50;;
15482;SDS011;7843;50.330;7.312;2023-04-07T09:43:17;8.77;;;4.77;;
15482;SDS011;7843;50.330;7.312;2023-04-07T09:45:44;11.35;;;5.20;;
15482;SDS011;7843;50.330;7.312;2023-04-07T09:48:18;8.15;;;4.60;;
15482;SDS011;7843;50.330;7.312;2023-04-07T09:50:46;10.93;;;5.30;;
15482;SDS011;7843;50.330;7.312;2023-04-07T09:53:17;7.50;;;4.03;;
15482;SDS011;7843;50.330;7.312;2023-04-07T09:55:48;6.93;;;3.85;;
15482;SDS011;7843;50.330;7.312;2023-04-07T09:58:15;6.45;;;3.55;;
15482;SDS011;7843;50.330;7.312;2023-04-07T10:00:42;6.70;;;3.25;;
15482;SDS011;7843;50.330;7.312;2023-04-07T10:03:09;7.15;;;3.00;;
15482;SDS011;7843;50.330;7.312;2023-04-07T10:05:37;6.88;;;2.83;;
15482;SDS011;7843;50.330;7.312;2023-04-07T10:08:08;8.15;;;2.83;;
15482;SDS011;7843;50.330;7.312;2023-04-07T10:10:35;5.78;;;2.47;;
15482;SDS011;7843;50.330;7.312;2023-04-07T10:13:06;5.57;;;2.40;;
15482;SDS011;7843;50.330;7.312;2023-04-07T10:15:32;7.65;;;2.70;;
15482;SDS011;7843;50.330;7.312;2023-04-07T10:17:59;6.38;;;2.60;;
15482;SDS011;7843;50.330;7.312;2023-04-07T10:20:30;6.07;;;2.58;;
15482;SDS011;7843;50.330;7.312;2023-04-07T10:22:59;4.63;;;1.90;;
15482;SDS011;7843;50.330;7.312;2023-04-07T10:25:33;5.13;;;1.90;;
15482;SDS011;7843;50.330;7.312;2023-04-07T10:28:03;4.45;;;1.83;;
15482;SDS011;7843;50.330;7.312;2023-04-07T10:30:32;7.10;;;2.90;;
15482;SDS011;7843;50.330;7.312;2023-04-07T10:33:00;5.28;;;2.47;;
15482;SDS011;7843;50.330;7.312;2023-04-07T10:35:27;4.93;;;2.25;;
15482;SDS011;7843;50.330;7.312;2023-04-07T10:40:34;9.57;;;4.75;;
15482;SDS011;7843;50.330;7.312;2023-04-07T10:43:04;14.88;;;9.50;;
15482;SDS011;7843;50.330;7.312;2023-04-07T10:48:14;5.83;;;3.10;;
15482;SDS011;7843;50.330;7.312;2023-04-07T10:50:41;6.07;;;3.50;;
15482;SDS011;7843;50.330;7.312;2023-04-07T10:53:09;5.70;;;3.70;;
15482;SDS011;7843;50.330;7.312;2023-04-07T10:55:38;5.70;;;3.20;;
15482;SDS011;7843;50.330;7.312;2023-04-07T10:58:16;6.63;;;3.28;;
15482;SDS011;7843;50.330;7.312;2023-04-07T11:03:33;5.70;;;2.35;;
15482;SDS011;7843;50.330;7.312;2023-04-07T11:06:03;6.35;;;2.85;;
15482;SDS011;7843;50.330;7.312;2023-04-07T11:08:34;4.78;;;2.63;;
15482;SDS011;7843;50.330;7.312;2023-04-07T11:11:02;4.93;;;2.77;;
15482;SDS011;7843;50.330;7.312;2023-04-07T11:13:40;5.97;;;2.80;;
15482;SDS011;7843;50.330;7.312;2023-04-07T11:16:12;4.07;;;2.55;;
15482;SDS011;7843;50.330;7.312;2023-04-07T11:18:40;6.82;;;2.83;;
15482;SDS011;7843;50.330;7.312;2023-04-07T11:21:07;3.88;;;2.70;;
15482;SDS011;7843;50.330;7.312;2023-04-07T11:23:38;4.45;;;2.85;;
15482;SDS011;7843;50.330;7.312;2023-04-07T11:26:07;5.15;;;2.88;;
15482;SDS011;7843;50.330;7.312;2023-04-07T11:31:24;7.35;;;4.30;;
15482;SDS011;7843;50.330;7.312;2023-04-07T11:33:53;6.95;;;3.78;;
15482;SDS011;7843;50.330;7.312;2023-04-07T11:36:34;8.38;;;3.88;;
15482;SDS011;7843;50.330;7.312;2023-04-07T11:39:04;5.88;;;3.90;;
15482;SDS011;7843;50.330;7.312;2023-04-07T11:41:31;6.63;;;3.65;;
15482;SDS011;7843;50.330;7.312;2023-04-07T11:46:36;7.10;;;3.77;;
15482;SDS011;7843;50.330;7.312;2023-04-07T11:49:16;6.82;;;3.92;;
15482;SDS011;7843;50.330;7.312;2023-04-07T11:51:43;12.57;;;5.35;;
15482;SDS011;7843;50.330;7.312;2023-04-07T11:54:10;8.38;;;4.22;;
15482;SDS011;7843;50.330;7.312;2023-04-07T11:56:44;9.85;;;4.43;;
15482;SDS011;7843;50.330;7.312;2023-04-07T11:59:18;10.00;;;4.80;;
15482;SDS011;7843;50.330;7.312;2023-04-07T12:01:49;10.82;;;5.55;;
15482;SDS011;7843;50.330;7.312;2023-04-07T12:04:18;10.03;;;5.20;;
15482;SDS011;7843;50.330;7.312;2023-04-07T12:06:46;9.40;;;4.27;;
15482;SDS011;7843;50.330;7.312;2023-04-07T12:09:47;9.82;;;4.90;;
15482;SDS011;7843;50.330;7.312;2023-04-07T12:12:06;13.60;;;4.45;;
15482;SDS011;7843;50.330;7.312;2023-04-07T12:14:35;6.13;;;3.70;;
15482;SDS011;7843;50.330;7.312;2023-04-07T12:17:02;7.75;;;3.67;;
15482;SDS011;7843;50.330;7.312;2023-04-07T12:19:30;8.05;;;4.05;;
15482;SDS011;7843;50.330;7.312;2023-04-07T12:22:00;7.88;;;4.13;;
15482;SDS011;7843;50.330;7.312;2023-04-07T12:24:27;7.77;;;3.37;;
15482;SDS011;7843;50.330;7.312;2023-04-07T12:26:54;6.85;;;3.20;;
15482;SDS011;7843;50.330;7.312;2023-04-07T12:29:21;7.23;;;3.00;;
15482;SDS011;7843;50.330;7.312;2023-04-07T12:31:48;4.93;;;3.00;;
15482;SDS011;7843;50.330;7.312;2023-04-07T12:34:15;6.07;;;2.60;;
15482;SDS011;7843;50.330;7.312;2023-04-07T12:36:42;4.25;;;2.67;;
15482;SDS011;7843;50.330;7.312;2023-04-07T12:39:09;4.20;;;2.37;;
15482;SDS011;7843;50.330;7.312;2023-04-07T12:41:36;4.87;;;2.60;;
15482;SDS011;7843;50.330;7.312;2023-04-07T12:44:03;4.15;;;2.13;;
15482;SDS011;7843;50.330;7.312;2023-04-07T12:46:31;6.78;;;2.35;;
15482;SDS011;7843;50.330;7.312;2023-04-07T12:48:57;5.38;;;2.30;;
15482;SDS011;7843;50.330;7.312;2023-04-07T12:51:24;4.55;;;2.15;;
15482;SDS011;7843;50.330;7.312;2023-04-07T12:53:51;5.53;;;2.85;;
15482;SDS011;7843;50.330;7.312;2023-04-07T12:56:19;3.55;;;2.30;;
15482;SDS011;7843;50.330;7.312;2023-04-07T12:58:47;4.22;;;1.98;;
15482;SDS011;7843;50.330;7.312;2023-04-07T13:01:14;4.70;;;2.60;;
15482;SDS011;7843;50.330;7.312;2023-04-07T13:03:41;5.90;;;2.73;;
15482;SDS011;7843;50.330;7.312;2023-04-07T13:06:08;5.32;;;2.90;;
15482;SDS011;7843;50.330;7.312;2023-04-07T13:08:35;6.60;;;3.45;;
15482;SDS011;7843;50.330;7.312;2023-04-07T13:11:03;4.05;;;2.88;;
15482;SDS011;7843;50.330;7.312;2023-04-07T13:13:30;5.97;;;3.30;;
15482;SDS011;7843;50.330;7.312;2023-04-07T13:15:57;9.50;;;4.97;;
15482;SDS011;7843;50.330;7.312;2023-04-07T13:18:24;7.45;;;3.70;;
15482;SDS011;7843;50.330;7.312;2023-04-07T13:20:50;5.70;;;3.35;;
15482;SDS011;7843;50.330;7.312;2023-04-07T13:23:29;8.10;;;3.65;;
15482;SDS011;7843;50.330;7.312;2023-04-07T13:26:04;9.90;;;4.35;;
15482;SDS011;7843;50.330;7.312;2023-04-07T13:28:31;7.85;;;4.20;;
15482;SDS011;7843;50.330;7.312;2023-04-07T13:30:58;7.47;;;4.18;;
15482;SDS011;7843;50.330;7.312;2023-04-07T13:33:25;8.07;;;3.92;;
15482;SDS011;7843;50.330;7.312;2023-04-07T13:35:52;7.03;;;4.22;;
15482;SDS011;7843;50.330;7.312;2023-04-07T13:38:19;7.47;;;4.30;;
15482;SDS011;7843;50.330;7.312;2023-04-07T13:40:45;10.20;;;4.95;;
15482;SDS011;7843;50.330;7.312;2023-04-07T13:43:14;7.63;;;4.28;;
15482;SDS011;7843;50.330;7.312;2023-04-07T13:45:43;6.88;;;4.10;;
15482;SDS011;7843;50.330;7.312;2023-04-07T13:48:10;5.68;;;3.75;;
15482;SDS011;7843;50.330;7.312;2023-04-07T13:50:37;7.72;;;4.00;;
15482;SDS011;7843;50.330;7.312;2023-04-07T13:53:03;5.38;;;3.15;;
15482;SDS011;7843;50.330;7.312;2023-04-07T13:55:30;5.90;;;3.40;;
15482;SDS011;7843;50.330;7.312;2023-04-07T13:57:57;9.32;;;3.97;;
15482;SDS011;7843;50.330;7.312;2023-04-07T14:00:23;6.78;;;4.15;;
15482;SDS011;7843;50.330;7.312;2023-04-07T14:02:51;6.35;;;3.88;;
15482;SDS011;7843;50.330;7.312;2023-04-07T14:05:18;5.72;;;3.88;;
15482;SDS011;7843;50.330;7.312;2023-04-07T14:07:45;5.70;;;3.13;;
15482;SDS011;7843;50.330;7.312;2023-04-07T14:10:12;6.35;;;3.63;;
15482;SDS011;7843;50.330;7.312;2023-04-07T14:12:39;7.25;;;3.80;;
15482;SDS011;7843;50.330;7.312;2023-04-07T14:15:06;6.00;;;3.85;;
15482;SDS011;7843;50.330;7.312;2023-04-07T14:17:33;4.72;;;2.88;;
15482;SDS011;7843;50.330;7.312;2023-04-07T14:20:00;6.43;;;2.95;;
15482;SDS011;7843;50.330;7.312;2023-04-07T14:22:27;4.88;;;3.10;;
15482;SDS011;7843;50.330;7.312;2023-04-07T14:24:54;7.53;;;3.25;;
15482;SDS011;7843;50.330;7.312;2023-04-07T14:27:21;6.93;;;3.15;;
15482;SDS011;7843;50.330;7.312;2023-04-07T14:29:47;5.25;;;3.33;;
15482;SDS011;7843;50.330;7.312;2023-04-07T14:32:15;5.78;;;3.03;;
15482;SDS011;7843;50.330;7.312;2023-04-07T14:34:42;5.50;;;3.30;;
15482;SDS011;7843;50.330;7.312;2023-04-07T14:37:08;7.10;;;3.58;;
15482;SDS011;7843;50.330;7.312;2023-04-07T14:39:36;7.97;;;3.70;;
15482;SDS011;7843;50.330;7.312;2023-04-07T14:42:04;6.35;;;4.10;;
15482;SDS011;7843;50.330;7.312;2023-04-07T14:44:31;6.07;;;4.28;;
15482;SDS011;7843;50.330;7.312;2023-04-07T14:46:58;7.13;;;3.63;;
15482;SDS011;7843;50.330;7.312;2023-04-07T14:49:25;7.18;;;3.83;;
15482;SDS011;7843;50.330;7.312;2023-04-07T14:51:53;9.23;;;4.22;;
15482;SDS011;7843;50.330;7.312;2023-04-07T14:54:20;7.30;;;4.10;;
15482;SDS011;7843;50.330;7.312;2023-04-07T14:56:46;5.82;;;3.42;;
15482;SDS011;7843;50.330;7.312;2023-04-07T14:59:13;7.80;;;3.93;;
15482;SDS011;7843;50.330;7.312;2023-04-07T15:01:40;4.93;;;3.40;;
15482;SDS011;7843;50.330;7.312;2023-04-07T15:04:06;5.35;;;2.85;;
15482;SDS011;7843;50.330;7.312;2023-04-07T15:06:33;6.55;;;3.45;;
15482;SDS011;7843;50.330;7.312;2023-04-07T15:09:00;6.80;;;3.35;;
15482;SDS011;7843;50.330;7.312;2023-04-07T15:11:27;6.43;;;3.35;;
15482;SDS011;7843;50.330;7.312;2023-04-07T15:13:53;6.63;;;3.57;;
15482;SDS011;7843;50.330;7.312;2023-04-07T15:16:20;7.10;;;3.47;;
15482;SDS011;7843;50.330;7.312;2023-04-07T15:18:47;8.85;;;4.05;;
15482;SDS011;7843;50.330;7.312;2023-04-07T15:21:13;8.32;;;3.47;;
15482;SDS011;7843;50.330;7.312;2023-04-07T15:23:41;7.45;;;3.60;;
15482;SDS011;7843;50.330;7.312;2023-04-07T15:26:08;6.07;;;3.63;;
15482;SDS011;7843;50.330;7.312;2023-04-07T15:28:35;7.47;;;3.90;;
15482;SDS011;7843;50.330;7.312;2023-04-07T15:31:03;7.07;;;3.90;;
15482;SDS011;7843;50.330;7.312;2023-04-07T15:33:36;7.70;;;3.97;;